Time;durP1;ratioP1;P1;durP2;ratioP2;P2;SDS_P1;SDS_P2;PMS_P1;PMS_P2;Temp;Humidity;BMP_temperature;BMP_pressure;BME280_temperature;BME280_humidity;BME280_pressure;Samples;Min_cycle;Max_cycle;Signal;HPM_P1;HPM_P2
2021/08/30 00:00:00;;;;;;;1.40;1.30;;;15.70;84.80;;;;;;5005919;28;20034;-63
2021/08/30 00:02:26;;;;;;;1.38;1.27;;;15.70;84.70;;;;;;5002008;28;20436;-63
2021/08/30 00:04:52;;;;;;;1.30;1.20;;;15.70;84.70;;;;;;5004525;28;20030;-63
2021/08/30 00:07:17;;;;;;;2.88;1.55;;;15.70;84.70;;;;;;5001725;28;20032;-63
2021/08/30 00:09:43;;;;;;;1.98;1.55;;;15.60;84.70;;;;;;5003073;28;20102;-62
2021/08/30 00:12:10;;;;;;;2.33;1.80;;;15.70;85.60;;;;;;5001227;28;20722;-63
2021/08/30 00:14:37;;;;;;;1.70;1.60;;;15.70;84.80;;;;;;5002012;28;20509;-63
2021/08/30 00:17:03;;;;;;;2.20;1.70;;;15.70;84.80;;;;;;5003372;28;20045;-63
2021/08/30 00:19:33;;;;;;;3.92;1.75;;;15.70;84.90;;;;;;5003731;28;20030;-63
2021/08/30 00:21:59;;;;;;;3.72;1.85;;;15.70;85.00;;;;;;5002759;28;20077;-63
2021/08/30 00:24:24;;;;;;;2.00;1.73;;;15.70;84.80;;;;;;5000306;28;20057;-63
2021/08/30 00:26:51;;;;;;;2.30;2.10;;;15.70;84.80;;;;;;5002147;28;20117;-63
2021/08/30 00:29:18;;;;;;;7.50;1.70;;;15.70;84.90;;;;;;5005195;28;20038;-63
2021/08/30 00:31:43;;;;;;;1.80;1.70;;;15.70;84.90;;;;;;5000196;28;20034;-63
2021/08/30 00:34:09;;;;;;;1.98;1.88;;;15.70;84.90;;;;;;5012941;28;20409;-63
2021/08/30 00:36:35;;;;;;;2.17;1.90;;;15.70;84.80;;;;;;5003266;28;20042;-63
2021/08/30 00:39:00;;;;;;;1.90;1.80;;;15.70;84.90;;;;;;5006513;28;20041;-63
2021/08/30 00:41:26;;;;;;;1.90;1.70;;;15.70;85.00;;;;;;5006234;28;20037;-63
2021/08/30 00:43:55;;;;;;;1.60;1.50;;;15.70;84.80;;;;;;5005173;28;20042;-63
2021/08/30 00:46:20;;;;;;;2.17;1.60;;;15.70;84.80;;;;;;5006901;28;20071;-63
2021/08/30 00:48:50;;;;;;;1.88;1.77;;;15.70;84.70;;;;;;5006757;28;20498;-63
2021/08/30 00:51:17;;;;;;;3.45;1.50;;;15.70;84.80;;;;;;5007139;28;20566;-64
2021/08/30 00:53:45;;;;;;;1.70;1.60;;;15.70;84.80;;;;;;5005908;28;20042;-64
2021/08/30 00:56:11;;;;;;;1.58;1.45;;;15.70;84.80;;;;;;5004530;28;20532;-65
2021/08/30 00:58:41;;;;;;;1.92;1.20;;;15.70;84.60;;;;;;5007536;28;20168;-64
2021/08/30 01:01:08;;;;;;;1.50;1.40;;;15.70;84.80;;;;;;5004404;28;21388;-64
2021/08/30 01:03:34;;;;;;;1.60;1.50;;;15.70;84.80;;;;;;5006320;28;20038;-64
2021/08/30 01:06:07;;;;;;;1.48;1.38;;;15.70;84.80;;;;;;5006152;28;20034;-59
2021/08/30 01:08:36;;;;;;;1.70;1.50;;;15.70;84.80;;;;;;5005906;28;20038;-64
2021/08/30 01:11:14;;;;;;;1.20;1.05;;;15.70;84.70;;;;;;5004947;28;20030;-64
2021/08/30 01:13:53;;;;;;;1.25;1.13;;;15.70;84.80;;;;;;5006666;28;20053;-63
2021/08/30 01:16:22;;;;;;;2.72;1.20;;;15.70;84.80;;;;;;5006185;28;20088;-64
2021/08/30 01:18:51;;;;;;;2.15;1.30;;;15.70;84.60;;;;;;5005032;28;20607;-64
2021/08/30 01:21:33;;;;;;;1.30;1.25;;;15.70;84.50;;;;;;4998876;28;20502;-64
2021/08/30 01:24:11;;;;;;;1.90;1.20;;;15.70;84.70;;;;;;5022128;28;20041;-64
2021/08/30 01:26:41;;;;;;;1.17;1.17;;;15.70;84.60;;;;;;5007723;28;20057;-63
2021/08/30 01:29:16;;;;;;;1.15;1.05;;;15.70;84.60;;;;;;5007463;28;20053;-64
2021/08/30 01:31:52;;;;;;;;;;;15.70;84.60;;;;;;5006735;28;20041;-64
2021/08/30 01:34:20;;;;;;;1.10;1.00;;;15.70;84.80;;;;;;5006771;28;19953;-63
2021/08/30 01:36:48;;;;;;;1.73;1.13;;;15.70;84.30;;;;;;5002721;28;20038;-64
2021/08/30 01:39:15;;;;;;;3.05;1.42;;;15.70;84.30;;;;;;5005518;28;20100;-64
2021/08/30 01:41:41;;;;;;;1.20;1.10;;;15.70;84.40;;;;;;5003300;28;20092;-64
2021/08/30 01:44:09;;;;;;;0.80;0.80;;;15.70;84.50;;;;;;5005049;28;20058;-64
2021/08/30 01:46:37;;;;;;;1.48;0.90;;;15.70;84.50;;;;;;5002442;28;20041;-64
2021/08/30 01:49:06;;;;;;;1.70;0.90;;;15.60;84.50;;;;;;5002803;28;20038;-64
2021/08/30 01:51:32;;;;;;;1.45;1.20;;;15.60;84.50;;;;;;5004704;28;20501;-64
2021/08/30 01:53:58;;;;;;;2.03;0.90;;;15.60;84.50;;;;;;5007616;28;20064;-64
2021/08/30 01:56:27;;;;;;;1.38;0.85;;;15.60;84.60;;;;;;5005312;28;20561;-63
2021/08/30 02:01:38;;;;;;;;;;;15.60;84.70;;;;;;5003436;28;20041;-64
2021/08/30 02:04:04;;;;;;;1.15;1.05;;;15.70;85.00;;;;;;5006283;28;19914;-64
2021/08/30 02:06:31;;;;;;;1.25;1.00;;;15.70;84.50;;;;;;5003557;28;20037;-64
2021/08/30 02:08:58;;;;;;;1.30;1.20;;;15.70;84.60;;;;;;5004443;28;20041;-64
2021/08/30 02:11:34;;;;;;;1.85;1.20;;;15.60;84.60;;;;;;5001641;28;20553;-64
2021/08/30 02:14:02;;;;;;;2.55;1.30;;;15.70;84.60;;;;;;5005517;28;20042;-64
2021/08/30 02:16:28;;;;;;;1.20;1.10;;;15.70;84.60;;;;;;5002885;28;20085;-64
2021/08/30 02:19:27;;;;;;;2.65;1.20;;;15.70;84.60;;;;;;5004784;28;20591;-64
2021/08/30 02:22:00;;;;;;;1.88;1.05;;;15.70;84.80;;;;;;5002915;28;20034;-64
2021/08/30 02:24:46;;;;;;;1.20;1.10;;;15.70;84.80;;;;;;5022239;28;20068;-64
2021/08/30 02:27:20;;;;;;;1.52;0.98;;;15.70;84.60;;;;;;5005739;28;20034;-64
2021/08/30 02:29:50;;;;;;;1.05;1.00;;;15.70;84.60;;;;;;5005445;28;20053;-64
2021/08/30 02:32:17;;;;;;;1.23;1.00;;;15.70;84.50;;;;;;5003724;28;20033;-64
2021/08/30 02:34:47;;;;;;;1.58;0.98;;;15.70;84.40;;;;;;5004478;28;20432;-64
2021/08/30 02:37:14;;;;;;;1.20;0.98;;;15.70;84.50;;;;;;5005155;28;20057;-64
2021/08/30 02:39:42;;;;;;;1.63;0.90;;;15.70;84.50;;;;;;5005083;28;20283;-64
2021/08/30 02:42:09;;;;;;;0.90;0.90;;;15.70;84.50;;;;;;5002585;28;20405;-64
2021/08/30 02:44:35;;;;;;;3.38;1.13;;;15.70;84.60;;;;;;5004114;28;20041;-64
2021/08/30 02:47:02;;;;;;;1.45;0.80;;;15.70;84.60;;;;;;5003530;28;20072;-64
2021/08/30 02:49:28;;;;;;;1.38;1.05;;;15.70;84.60;;;;;;5003088;28;20044;-65
2021/08/30 02:51:55;;;;;;;2.53;1.15;;;15.70;84.50;;;;;;5001952;28;20114;-64
2021/08/30 02:54:23;;;;;;;1.35;0.85;;;15.70;84.60;;;;;;5006584;28;20026;-64
2021/08/30 02:56:49;;;;;;;1.75;0.82;;;15.70;84.60;;;;;;5005350;28;20096;-64
2021/08/30 02:59:17;;;;;;;1.10;1.00;;;15.70;84.50;;;;;;5004382;28;20041;-63
2021/08/30 03:01:44;;;;;;;1.52;0.80;;;15.60;85.20;;;;;;5002542;28;20040;-64
2021/08/30 03:04:13;;;;;;;2.03;1.02;;;15.70;84.40;;;;;;5003974;28;20077;-63
2021/08/30 03:06:40;;;;;;;3.00;0.90;;;15.70;84.30;;;;;;5003009;28;20034;-64
2021/08/30 03:09:05;;;;;;;3.42;0.95;;;15.60;84.30;;;;;;5005919;28;20106;-64
2021/08/30 03:11:32;;;;;;;2.13;0.90;;;15.60;84.30;;;;;;5002763;28;20437;-64
2021/08/30 03:14:01;;;;;;;1.13;1.02;;;15.60;84.40;;;;;;5004210;28;20121;-64
2021/08/30 03:16:28;;;;;;;1.77;1.10;;;15.60;84.50;;;;;;5002393;28;20576;-64
2021/08/30 03:18:56;;;;;;;1.17;1.08;;;15.60;84.40;;;;;;5003276;28;20065;-64
2021/08/30 03:21:26;;;;;;;1.20;1.10;;;15.60;84.30;;;;;;5003197;28;20029;-63
2021/08/30 03:23:53;;;;;;;0.95;0.95;;;15.60;84.30;;;;;;4997029;28;20540;-64
2021/08/30 03:26:21;;;;;;;1.35;1.25;;;15.60;84.30;;;;;;5004387;28;20034;-64
2021/08/30 03:28:47;;;;;;;1.23;1.13;;;15.60;84.50;;;;;;4996293;28;20521;-63
2021/08/30 03:31:14;;;;;;;1.80;0.95;;;15.60;85.30;;;;;;5003456;28;20248;-64
2021/08/30 03:33:42;;;;;;;1.20;1.20;;;15.60;84.50;;;;;;5002366;28;20034;-64
2021/08/30 03:36:09;;;;;;;2.17;1.02;;;15.60;84.60;;;;;;5002393;28;20033;-64
2021/08/30 03:38:35;;;;;;;1.67;1.15;;;15.60;84.60;;;;;;5004467;28;20037;-64
2021/08/30 03:41:02;;;;;;;1.40;1.30;;;15.60;84.60;;;;;;5006498;28;20121;-64
2021/08/30 03:43:28;;;;;;;2.33;1.08;;;15.60;84.70;;;;;;5005645;28;20509;-64
2021/08/30 03:45:55;;;;;;;1.20;1.10;;;15.60;84.70;;;;;;5004017;28;20034;-64
2021/08/30 03:48:23;;;;;;;1.58;1.00;;;15.60;84.70;;;;;;5006553;28;20096;-64
2021/08/30 03:50:49;;;;;;;2.53;1.00;;;15.60;84.70;;;;;;5002087;28;20030;-63
2021/08/30 03:53:17;;;;;;;1.08;0.93;;;15.60;84.70;;;;;;5000901;28;20057;-63
2021/08/30 03:55:44;;;;;;;1.10;1.00;;;15.60;84.80;;;;;;5000286;28;20448;-64
2021/08/30 03:58:10;;;;;;;1.85;1.17;;;15.60;84.80;;;;;;5002978;28;20452;-63
2021/08/30 04:00:36;;;;;;;1.90;1.00;;;15.60;84.80;;;;;;5004569;28;20125;-64
2021/08/30 04:03:03;;;;;;;0.90;0.90;;;15.60;85.70;;;;;;5001285;28;20155;-63
2021/08/30 04:05:30;;;;;;;1.02;1.02;;;15.60;84.80;;;;;;5002780;28;20037;-64
2021/08/30 04:08:00;;;;;;;1.20;1.10;;;15.60;84.90;;;;;;5004858;28;20041;-64
2021/08/30 04:10:27;;;;;;;1.10;1.00;;;15.60;85.00;;;;;;5002394;28;20022;-64
2021/08/30 04:12:55;;;;;;;2.95;2.65;;;15.60;84.90;;;;;;5001610;28;20034;-64
2021/08/30 04:15:22;;;;;;;3.78;3.47;;;15.60;84.90;;;;;;5002964;28;20126;-64
2021/08/30 04:17:47;;;;;;;2.10;1.98;;;15.60;84.90;;;;;;5004862;28;20084;-64
2021/08/30 04:20:13;;;;;;;1.50;1.40;;;15.60;85.00;;;;;;5002218;28;20038;-64
2021/08/30 04:22:39;;;;;;;2.28;1.50;;;15.60;85.00;;;;;;4999871;28;20030;-62
2021/08/30 04:25:05;;;;;;;1.50;1.40;;;15.60;85.00;;;;;;5015450;28;20113;-64
2021/08/30 04:27:31;;;;;;;1.83;1.40;;;15.60;85.00;;;;;;4996619;28;20034;-62
2021/08/30 04:29:56;;;;;;;2.75;1.42;;;15.60;84.90;;;;;;5002225;28;20048;-65
2021/08/30 04:32:22;;;;;;;2.00;1.90;;;15.60;84.90;;;;;;5001159;28;20042;-64
2021/08/30 04:34:48;;;;;;;1.65;1.55;;;15.60;84.90;;;;;;5004389;28;20058;-63
2021/08/30 04:37:13;;;;;;;2.45;1.50;;;15.60;85.00;;;;;;5000054;28;20572;-64
2021/08/30 04:39:39;;;;;;;1.60;1.50;;;15.60;85.00;;;;;;4999940;28;20045;-64
2021/08/30 04:42:05;;;;;;;3.42;3.13;;;15.60;85.00;;;;;;4997376;28;20089;-63
2021/08/30 04:44:32;;;;;;;1.88;1.77;;;15.60;85.20;;;;;;5004611;28;20429;-64
2021/08/30 04:47:00;;;;;;;2.55;1.27;;;15.60;85.10;;;;;;5004403;28;20521;-64
2021/08/30 04:49:26;;;;;;;1.50;1.40;;;15.60;85.20;;;;;;5003463;28;20052;-64
2021/08/30 04:51:51;;;;;;;1.10;1.05;;;15.60;85.20;;;;;;5003830;28;20117;-63
2021/08/30 04:54:20;;;;;;;1.35;1.25;;;15.60;85.30;;;;;;5002664;28;20033;-64
2021/08/30 04:56:46;;;;;;;2.97;2.75;;;15.60;85.30;;;;;;5001614;28;20088;-64
2021/08/30 04:59:11;;;;;;;1.60;1.50;;;15.50;85.40;;;;;;5003838;28;20038;-64
2021/08/30 05:01:37;;;;;;;3.40;2.70;;;15.50;85.50;;;;;;5004337;28;20084;-63
2021/08/30 05:04:03;;;;;;;1.80;1.70;;;15.50;85.50;;;;;;5002868;28;20041;-64
2021/08/30 05:06:28;;;;;;;1.90;1.80;;;15.50;85.50;;;;;;4998829;28;20040;-64
2021/08/30 05:08:54;;;;;;;1.60;1.50;;;15.50;85.50;;;;;;5004388;28;20449;-63
2021/08/30 05:11:19;;;;;;;1.98;1.88;;;15.50;85.70;;;;;;5000190;28;20072;-64
2021/08/30 05:13:45;;;;;;;2.10;1.83;;;15.40;85.70;;;;;;5005259;28;20034;-64
2021/08/30 05:16:11;;;;;;;1.80;1.70;;;15.50;85.70;;;;;;5002009;28;20092;-65
2021/08/30 05:18:39;;;;;;;1.38;1.27;;;15.50;85.90;;;;;;5003159;28;20057;-64
2021/08/30 05:21:05;;;;;;;1.70;1.10;;;15.50;86.00;;;;;;5001622;28;20034;-64
2021/08/30 05:23:31;;;;;;;4.57;1.35;;;15.40;85.90;;;;;;5003807;28;20061;-64
2021/08/30 05:25:56;;;;;;;2.28;1.80;;;15.40;86.00;;;;;;5005019;28;20414;-64
2021/08/30 05:28:22;;;;;;;1.83;1.33;;;15.40;86.00;;;;;;5009115;28;20046;-64
2021/08/30 05:30:47;;;;;;;1.50;1.40;;;15.40;86.20;;;;;;5002166;28;20034;-64
2021/08/30 05:33:13;;;;;;;2.28;1.33;;;15.40;86.20;;;;;;5004119;28;20033;-64
2021/08/30 05:35:39;;;;;;;1.20;1.10;;;15.40;86.20;;;;;;5003320;28;20034;-64
2021/08/30 05:38:04;;;;;;;1.50;1.40;;;15.40;86.20;;;;;;5004696;28;20428;-64
2021/08/30 05:40:30;;;;;;;1.30;1.20;;;15.40;86.10;;;;;;5004113;28;20371;-64
2021/08/30 05:42:56;;;;;;;1.50;1.40;;;15.40;86.20;;;;;;5003600;28;20057;-64
2021/08/30 05:45:21;;;;;;;1.10;1.10;;;15.40;86.20;;;;;;5007913;28;20084;-64
2021/08/30 05:47:47;;;;;;;1.40;1.30;;;15.40;86.40;;;;;;5007002;28;20053;-65
2021/08/30 05:50:13;;;;;;;1.30;1.20;;;15.40;86.40;;;;;;5012008;28;20044;-64
2021/08/30 05:52:38;;;;;;;0.82;0.82;;;15.40;86.60;;;;;;5002952;28;20035;-64
2021/08/30 05:55:05;;;;;;;2.00;0.95;;;15.40;86.60;;;;;;5005692;28;20026;-64
2021/08/30 05:57:31;;;;;;;1.25;1.10;;;15.40;86.70;;;;;;5003351;28;20489;-64
2021/08/30 05:59:56;;;;;;;0.73;0.73;;;15.40;86.70;;;;;;5008938;28;20080;-64
2021/08/30 06:02:22;;;;;;;0.98;0.95;;;15.30;86.60;;;;;;5005492;28;20125;-64
2021/08/30 06:04:47;;;;;;;1.55;0.70;;;15.40;86.70;;;;;;5005910;28;20040;-64
2021/08/30 06:07:13;;;;;;;1.00;0.90;;;15.40;86.70;;;;;;5006369;28;20037;-64
2021/08/30 06:09:39;;;;;;;0.50;0.50;;;15.40;86.80;;;;;;5006200;28;20046;-64
2021/08/30 06:12:05;;;;;;;1.60;0.70;;;15.40;86.70;;;;;;5000352;28;20041;-64
2021/08/30 06:14:31;;;;;;;1.30;0.60;;;15.40;86.70;;;;;;5005063;28;20293;-64
2021/08/30 06:16:56;;;;;;;0.55;0.55;;;15.40;86.70;;;;;;5007861;28;20041;-64
2021/08/30 06:19:22;;;;;;;0.70;0.70;;;15.40;86.80;;;;;;5004419;28;20557;-64
2021/08/30 06:21:47;;;;;;;0.90;0.90;;;15.50;86.80;;;;;;5006360;28;20049;-64
2021/08/30 06:24:13;;;;;;;1.70;1.60;;;15.50;86.70;;;;;;5003141;28;20042;-64
2021/08/30 06:26:39;;;;;;;3.50;3.20;;;15.50;86.70;;;;;;5004684;28;20525;-64
2021/08/30 06:29:05;;;;;;;1.67;1.50;;;15.50;86.70;;;;;;5004359;28;20033;-64
2021/08/30 06:31:31;;;;;;;1.33;0.90;;;15.50;87.60;;;;;;5002991;28;20183;-64
2021/08/30 06:33:57;;;;;;;0.60;0.60;;;15.50;86.60;;;;;;5014399;28;20386;-63
2021/08/30 06:36:23;;;;;;;0.45;0.45;;;15.50;86.60;;;;;;5002972;28;20039;-64
2021/08/30 06:38:49;;;;;;;0.60;0.60;;;15.60;86.70;;;;;;5003989;28;20457;-64
2021/08/30 06:41:15;;;;;;;1.55;0.65;;;15.60;86.60;;;;;;5002755;28;20280;-64
2021/08/30 06:43:40;;;;;;;0.70;0.68;;;15.60;86.70;;;;;;4999812;28;20047;-64
2021/08/30 06:46:06;;;;;;;0.60;0.60;;;15.60;86.70;;;;;;5007647;28;20092;-64
2021/08/30 06:48:32;;;;;;;0.50;0.50;;;15.50;86.70;;;;;;5004351;28;20088;-64
2021/08/30 06:50:57;;;;;;;0.57;0.50;;;15.60;86.80;;;;;;5007593;28;20030;-64
2021/08/30 06:53:23;;;;;;;0.47;0.47;;;15.60;86.70;;;;;;5002800;28;20525;-64
2021/08/30 06:55:49;;;;;;;0.70;0.70;;;15.60;86.70;;;;;;5002490;28;20034;-64
2021/08/30 06:58:14;;;;;;;0.55;0.55;;;15.60;86.70;;;;;;5005408;28;20026;-64
2021/08/30 07:00:40;;;;;;;0.65;0.65;;;15.60;86.70;;;;;;5016472;28;20038;-63
2021/08/30 07:03:07;;;;;;;0.73;0.55;;;15.60;86.70;;;;;;4999184;28;20041;-64
2021/08/30 07:05:32;;;;;;;0.32;0.30;;;15.60;86.90;;;;;;4999956;28;20053;-64
2021/08/30 07:07:58;;;;;;;0.45;0.45;;;15.60;86.90;;;;;;5004222;28;20026;-64
2021/08/30 07:10:23;;;;;;;1.85;0.40;;;15.60;86.80;;;;;;5001084;28;20038;-64
2021/08/30 07:12:49;;;;;;;0.80;0.63;;;15.60;86.90;;;;;;5005565;28;20042;-64
2021/08/30 07:15:15;;;;;;;0.40;0.40;;;15.50;86.80;;;;;;5001568;28;20034;-64
2021/08/30 07:17:40;;;;;;;0.50;0.50;;;15.60;87.10;;;;;;5004513;28;20042;-64
2021/08/30 07:20:06;;;;;;;0.60;0.60;;;15.60;87.10;;;;;;5006222;28;20407;-65
2021/08/30 07:22:32;;;;;;;0.40;0.40;;;15.60;87.20;;;;;;5006592;28;20695;-64
2021/08/30 07:24:58;;;;;;;1.13;0.50;;;15.60;87.30;;;;;;5003008;28;20030;-64
2021/08/30 07:27:23;;;;;;;0.50;0.30;;;15.60;87.30;;;;;;5004374;28;20039;-64
2021/08/30 07:29:50;;;;;;;0.77;0.40;;;15.70;87.30;;;;;;5000995;28;20038;-64
2021/08/30 07:32:16;;;;;;;0.38;0.32;;;15.70;87.30;;;;;;5001770;28;20516;-64
2021/08/30 07:34:42;;;;;;;0.70;0.40;;;15.70;87.40;;;;;;5002415;28;20045;-64
2021/08/30 07:37:08;;;;;;;1.17;0.70;;;15.70;87.60;;;;;;5002242;28;20524;-64
2021/08/30 07:39:34;;;;;;;1.00;0.90;;;15.60;87.70;;;;;;5002902;28;20413;-64
2021/08/30 07:41:59;;;;;;;1.40;1.30;;;15.70;87.80;;;;;;5003367;28;20038;-64
2021/08/30 07:44:25;;;;;;;1.17;1.02;;;15.70;88.00;;;;;;5002295;28;20042;-64
2021/08/30 07:46:51;;;;;;;0.80;0.80;;;15.80;88.10;;;;;;4999161;28;20073;-64
2021/08/30 07:49:17;;;;;;;0.65;0.60;;;15.80;88.20;;;;;;5003115;28;20057;-64
2021/08/30 07:51:43;;;;;;;0.40;0.40;;;15.80;88.30;;;;;;5001999;28;20161;-64
2021/08/30 07:54:09;;;;;;;0.60;0.60;;;15.80;88.50;;;;;;5003576;28;20030;-65
2021/08/30 07:56:38;;;;;;;0.80;0.50;;;15.90;88.60;;;;;;5001048;28;20038;-64
2021/08/30 07:59:05;;;;;;;0.50;0.50;;;16.00;88.80;;;;;;5005036;28;20121;-64
2021/08/30 08:01:31;;;;;;;0.57;0.57;;;16.00;88.80;;;;;;4998297;28;20099;-64
2021/08/30 08:03:57;;;;;;;0.75;0.75;;;16.10;88.70;;;;;;5003436;28;20045;-64
2021/08/30 08:06:23;;;;;;;0.50;0.50;;;16.20;88.50;;;;;;5001322;28;20041;-64
2021/08/30 08:08:48;;;;;;;0.90;0.70;;;16.20;88.30;;;;;;5005993;28;20069;-64
2021/08/30 08:11:14;;;;;;;0.68;0.68;;;16.30;88.30;;;;;;4998567;28;20510;-64
2021/08/30 08:13:40;;;;;;;0.93;0.80;;;16.30;88.30;;;;;;5004119;28;20220;-65
2021/08/30 08:16:06;;;;;;;0.90;0.80;;;16.40;88.20;;;;;;5001653;28;20096;-64
2021/08/30 08:18:32;;;;;;;1.50;1.00;;;16.40;88.00;;;;;;5003097;28;20030;-64
2021/08/30 08:21:00;;;;;;;0.70;0.70;;;16.50;88.00;;;;;;5002273;28;20061;-64
2021/08/30 08:23:26;;;;;;;0.80;0.80;;;16.50;87.80;;;;;;5003833;28;20034;-64
2021/08/30 08:25:52;;;;;;;0.93;0.82;;;16.60;87.80;;;;;;5000126;28;20039;-65
2021/08/30 08:28:18;;;;;;;0.77;0.77;;;16.60;88.30;;;;;;5005195;28;20141;-65
2021/08/30 08:30:44;;;;;;;0.80;0.80;;;16.60;87.50;;;;;;5003304;28;20038;-64
2021/08/30 08:33:10;;;;;;;0.80;0.80;;;16.70;87.60;;;;;;5002568;28;20061;-64
2021/08/30 08:35:36;;;;;;;1.10;1.08;;;16.70;87.60;;;;;;5006351;28;20076;-64
2021/08/30 08:38:01;;;;;;;2.25;1.23;;;16.70;87.50;;;;;;5008863;28;20156;-64
2021/08/30 08:40:27;;;;;;;1.38;1.27;;;16.80;87.10;;;;;;4997932;28;20064;-65
2021/08/30 08:42:53;;;;;;;4.82;1.33;;;16.80;87.10;;;;;;5000964;28;20034;-64
2021/08/30 08:45:19;;;;;;;1.10;1.00;;;16.80;87.20;;;;;;5005049;28;20033;-64
2021/08/30 08:47:45;;;;;;;1.63;1.38;;;16.80;87.30;;;;;;5001728;28;20410;-65
2021/08/30 08:50:14;;;;;;;1.60;1.50;;;16.80;87.60;;;;;;5003204;28;20034;-65
2021/08/30 08:52:43;;;;;;;1.80;1.70;;;16.90;87.80;;;;;;4994972;28;20068;-64
2021/08/30 08:55:11;;;;;;;1.73;1.63;;;16.90;88.10;;;;;;5000216;28;20085;-65
2021/08/30 08:57:36;;;;;;;2.03;1.92;;;17.00;86.90;;;;;;5002893;28;20038;-63
2021/08/30 09:00:11;;;;;;;2.10;2.00;;;17.00;87.10;;;;;;5005813;28;20085;-64
2021/08/30 09:02:37;;;;;;;1.67;1.58;;;17.10;86.90;;;;;;5000572;28;20042;-64
2021/08/30 09:05:06;;;;;;;2.20;2.00;;;17.10;86.90;;;;;;5005292;28;20039;-64
2021/08/30 09:07:42;;;;;;;2.35;2.08;;;17.10;86.60;;;;;;5009664;28;20037;-64
2021/08/30 09:10:15;;;;;;;2.50;2.30;;;17.10;86.40;;;;;;5005794;28;20034;-64
2021/08/30 09:13:07;;;;;;;2.20;2.10;;;17.10;86.30;;;;;;4999645;28;20658;-64
2021/08/30 09:19:05;;;;;;;2.95;2.72;;;17.20;86.00;;;;;;5002847;28;20185;-65
2021/08/30 09:38:20;;;;;;;3.63;3.33;;;17.10;85.40;;;;;;5008674;28;20044;-65
2021/08/30 09:40:50;;;;;;;4.97;3.40;;;17.10;85.80;;;;;;5002453;28;20037;-65
2021/08/30 09:43:21;;;;;;;4.10;3.42;;;17.10;86.00;;;;;;5016763;28;20039;-64
2021/08/30 09:45:47;;;;;;;4.25;3.70;;;17.10;85.80;;;;;;5005940;28;20050;-64
2021/08/30 09:48:24;;;;;;;3.72;3.42;;;17.20;85.70;;;;;;5007392;28;20056;-64
2021/08/30 09:50:49;;;;;;;4.32;3.92;;;17.30;86.20;;;;;;4994965;28;20044;-64
2021/08/30 09:53:15;;;;;;;3.72;3.42;;;17.30;85.60;;;;;;5006568;28;20502;-64
2021/08/30 09:55:41;;;;;;;4.32;3.75;;;17.40;84.50;;;;;;5009236;28;20038;-64
2021/08/30 09:58:07;;;;;;;4.10;3.72;;;17.40;84.80;;;;;;5008508;28;20052;-64
2021/08/30 10:00:34;;;;;;;4.20;3.80;;;17.40;84.90;;;;;;4999943;28;20041;-64
2021/08/30 10:03:00;;;;;;;3.92;3.63;;;17.50;85.00;;;;;;5006099;28;20030;-64
2021/08/30 10:05:29;;;;;;;3.80;3.50;;;17.50;85.30;;;;;;5002605;28;20117;-64
2021/08/30 10:07:58;;;;;;;3.25;2.97;;;17.60;85.30;;;;;;5006334;28;20397;-64
2021/08/30 10:10:24;;;;;;;3.70;3.35;;;17.70;84.60;;;;;;5002536;28;20128;-64
2021/08/30 10:12:51;;;;;;;3.72;3.42;;;17.70;84.70;;;;;;5003740;28;20064;-64
2021/08/30 10:15:20;;;;;;;2.60;2.40;;;17.80;85.00;;;;;;5006078;28;20467;-64
2021/08/30 10:17:49;;;;;;;5.25;2.83;;;17.80;83.60;;;;;;5005610;28;20034;-64
2021/08/30 10:20:19;;;;;;;2.80;2.60;;;17.80;84.10;;;;;;4998873;28;20038;-63
2021/08/30 10:23:07;;;;;;;2.95;2.70;;;17.90;83.80;;;;;;4998934;28;20096;-64
2021/08/30 10:25:35;;;;;;;2.92;2.70;;;17.90;82.60;;;;;;5004825;28;20042;-65
2021/08/30 10:28:06;;;;;;;2.42;2.22;;;17.90;83.20;;;;;;5007251;28;20140;-65
2021/08/30 10:30:33;;;;;;;3.10;2.50;;;17.90;83.20;;;;;;5003599;28;20048;-65
2021/08/30 10:33:01;;;;;;;2.50;2.30;;;17.90;83.10;;;;;;5004173;28;20038;-64
2021/08/30 10:35:30;;;;;;;2.45;2.25;;;17.90;83.30;;;;;;5001272;28;20038;-65
2021/08/30 10:38:01;;;;;;;2.35;2.25;;;17.80;83.60;;;;;;5001916;28;20042;-64
2021/08/30 10:40:36;;;;;;;2.40;2.20;;;17.80;83.80;;;;;;5004754;28;20138;-64
2021/08/30 10:43:10;;;;;;;2.80;2.55;;;17.70;84.10;;;;;;5002903;28;20109;-64
2021/08/30 10:45:41;;;;;;;2.72;2.53;;;17.70;84.80;;;;;;5005751;28;20401;-64
2021/08/30 10:48:13;;;;;;;2.33;2.13;;;17.70;85.30;;;;;;5004171;28;20485;-64
2021/08/30 10:50:44;;;;;;;2.15;2.05;;;17.70;85.90;;;;;;5000893;28;20137;-64
2021/08/30 10:53:18;;;;;;;1.95;1.70;;;17.70;85.60;;;;;;5000597;28;20540;-64
2021/08/30 10:55:51;;;;;;;1.45;1.35;;;17.80;84.60;;;;;;5002107;28;20610;-64
2021/08/30 10:58:22;;;;;;;1.67;1.58;;;17.80;85.20;;;;;;5006977;28;20030;-65
2021/08/30 11:00:50;;;;;;;1.58;1.48;;;17.90;85.30;;;;;;5002556;28;20540;-64
2021/08/30 11:03:26;;;;;;;1.45;1.35;;;17.90;84.60;;;;;;5001793;28;20401;-65
2021/08/30 11:06:14;;;;;;;2.35;1.45;;;18.00;84.70;;;;;;5004811;28;20034;-64
2021/08/30 11:08:41;;;;;;;1.40;1.30;;;18.00;86.10;;;;;;5002516;28;20124;-64
2021/08/30 11:11:09;;;;;;;1.45;1.35;;;18.10;85.90;;;;;;4999623;28;20547;-64
2021/08/30 11:13:34;;;;;;;1.40;1.30;;;18.20;84.90;;;;;;5004687;28;20165;-64
2021/08/30 11:16:00;;;;;;;1.02;1.02;;;18.30;84.00;;;;;;5005889;28;20120;-64
2021/08/30 11:18:26;;;;;;;1.30;1.20;;;18.40;83.40;;;;;;5003026;28;20041;-65
2021/08/30 11:20:51;;;;;;;1.42;1.33;;;18.40;82.70;;;;;;5000202;28;20444;-64
2021/08/30 11:23:17;;;;;;;2.00;1.50;;;18.50;81.80;;;;;;5002749;28;20030;-65
2021/08/30 11:25:43;;;;;;;1.60;1.50;;;18.50;82.20;;;;;;5006052;28;20034;-64
2021/08/30 11:28:18;;;;;;;1.70;1.60;;;18.60;81.50;;;;;;5004869;28;20405;-64
2021/08/30 11:30:45;;;;;;;1.60;1.50;;;18.70;80.50;;;;;;5004095;28;20080;-64
2021/08/30 11:33:22;;;;;;;1.73;1.63;;;18.70;80.60;;;;;;5003771;28;20085;-66
2021/08/30 11:35:48;;;;;;;1.77;1.67;;;18.80;79.30;;;;;;5000134;28;20091;-65
2021/08/30 11:38:13;;;;;;;1.90;1.80;;;18.80;79.40;;;;;;5003487;28;20030;-65
2021/08/30 11:40:39;;;;;;;2.03;1.92;;;18.80;79.60;;;;;;5004734;28;20370;-64
2021/08/30 11:43:16;;;;;;;2.05;1.95;;;18.80;79.10;;;;;;5000789;28;20084;-65
2021/08/30 11:45:42;;;;;;;1.95;1.85;;;18.80;78.90;;;;;;5005353;28;20041;-65
2021/08/30 11:48:15;;;;;;;2.38;2.17;;;18.80;78.90;;;;;;5006003;28;20038;-64
2021/08/30 11:50:41;;;;;;;2.63;2.42;;;18.90;78.60;;;;;;5001013;28;20037;-64
2021/08/30 11:53:13;;;;;;;3.05;2.75;;;18.80;78.30;;;;;;4999318;28;20518;-65
2021/08/30 11:55:39;;;;;;;3.30;2.65;;;18.90;77.80;;;;;;5006902;28;20038;-64
2021/08/30 11:58:05;;;;;;;3.75;3.17;;;18.80;78.00;;;;;;5003063;28;20056;-65
2021/08/30 12:00:31;;;;;;;3.05;2.70;;;18.80;78.00;;;;;;5005200;28;20560;-64
2021/08/30 12:02:59;;;;;;;3.13;2.88;;;18.80;77.30;;;;;;5002286;28;20105;-64
2021/08/30 12:05:30;;;;;;;2.72;2.53;;;18.80;78.00;;;;;;5001655;28;20030;-65
2021/08/30 12:07:57;;;;;;;2.78;2.58;;;18.80;78.10;;;;;;5004782;28;20553;-65
2021/08/30 12:10:25;;;;;;;3.58;2.60;;;18.80;77.80;;;;;;4996021;28;20071;-65
2021/08/30 12:15:28;;;;;;;3.22;2.65;;;19.00;78.70;;;;;;5003567;28;20084;-64
2021/08/30 12:17:55;;;;;;;2.50;2.30;;;19.00;78.90;;;;;;5002526;28;20117;-65
2021/08/30 12:20:25;;;;;;;3.53;2.08;;;19.10;78.10;;;;;;5003201;28;20528;-65
2021/08/30 12:22:56;;;;;;;3.42;2.38;;;19.10;77.30;;;;;;4999544;28;20037;-64
2021/08/30 12:25:25;;;;;;;1.63;1.52;;;19.20;76.60;;;;;;5003269;28;20507;-65
2021/08/30 12:27:52;;;;;;;1.73;1.63;;;19.30;76.60;;;;;;5005886;28;20382;-66
2021/08/30 12:30:23;;;;;;;1.40;1.30;;;19.30;75.80;;;;;;5005771;28;20034;-65
2021/08/30 12:32:59;;;;;;;0.98;0.98;;;19.30;75.30;;;;;;5001861;28;20397;-65
2021/08/30 12:35:33;;;;;;;0.90;0.90;;;19.30;75.60;;;;;;5007370;28;20030;-65
2021/08/30 12:38:03;;;;;;;1.00;1.00;;;19.30;75.80;;;;;;5008786;28;20413;-65
2021/08/30 12:40:31;;;;;;;1.13;1.02;;;19.30;75.70;;;;;;5003302;28;20552;-64
2021/08/30 12:42:57;;;;;;;1.10;1.00;;;19.30;75.90;;;;;;5004115;28;20041;-65
2021/08/30 12:45:23;;;;;;;1.20;1.10;;;19.20;75.40;;;;;;5007042;28;20040;-64
2021/08/30 12:47:49;;;;;;;1.73;1.20;;;19.20;74.70;;;;;;5007437;28;20835;-65
2021/08/30 12:50:15;;;;;;;1.50;1.40;;;19.20;75.90;;;;;;5007042;28;20030;-65
2021/08/30 12:52:42;;;;;;;1.38;1.27;;;19.20;76.40;;;;;;5002661;28;20062;-64
2021/08/30 12:55:10;;;;;;;1.15;1.00;;;19.20;77.30;;;;;;5005374;28;20048;-65
2021/08/30 12:57:36;;;;;;;1.30;1.20;;;19.30;77.50;;;;;;5010149;28;20049;-64
2021/08/30 13:00:03;;;;;;;1.83;1.38;;;19.40;76.40;;;;;;5005494;28;20034;-65
2021/08/30 13:02:29;;;;;;;1.50;1.30;;;19.50;76.50;;;;;;5004247;28;20506;-64
2021/08/30 13:04:54;;;;;;;1.10;1.00;;;19.60;75.90;;;;;;5007621;28;20033;-65
2021/08/30 13:07:20;;;;;;;1.13;1.02;;;19.70;74.40;;;;;;5004337;28;20030;-65
2021/08/30 13:09:46;;;;;;;1.90;1.17;;;19.70;73.60;;;;;;5007996;28;20034;-64
2021/08/30 13:12:11;;;;;;;1.88;0.98;;;19.80;73.60;;;;;;5001991;28;20042;-64
2021/08/30 13:14:38;;;;;;;1.02;1.00;;;19.80;73.50;;;;;;5006670;28;20183;-64